CYZP

Sandspit Airport

Sandspit, , Canada
METAR CYZP 150000Z AUTO 28008KT 9SM FEW043 BKN050 20/14 A3002 RMK SLP166 DENSITY ALT 400FT
Observed Flight Rules
Aug-15 @ 00:00 UTC (an hour ago) Visual Flight Rules
Wind Visibility Clouds
280° at 8 knots 9 miles
  • Few at 4,300' AGL
  • Broken at 5,000' AGL
Temperatures Readings
Current 20°C / 68°F
Dewpoint 14°C / 57°F
Humidity 69%
Altimeter 30.02" Hg
Pressure 1016.6 hPa
Elevation 6
METAR CYZP 150000Z AUTO 28008KT 9SM FEW043 BKN050 20/14 A3002 RMK SLP166 DENSITY ALT 400FT
Observed Flight Rules
Aug-15 @ 00:00 UTC
(an hour ago)
VFR
Wind Visibility
280° at 8 knots 9 miles
Clouds
  • Few at 4,300' AGL
  • Broken at 5,000' AGL
Temperature Dewpoint
20°C / 68°F 14°C / 57°F
Humidity Altimeter Pressure
69% 30.02" Hg 1016.6 hPa